createdAt,value
2023-01-28T00:00:12.359Z,7.90
2023-01-28T00:03:01.738Z,8.20
2023-01-28T00:05:30.833Z,4.80
2023-01-28T00:08:00.028Z,7.30
2023-01-28T00:10:29.003Z,4.40
2023-01-28T00:12:58.432Z,6.00
2023-01-28T00:15:27.135Z,6.60
2023-01-28T00:17:56.830Z,6.50
2023-01-28T00:20:25.914Z,8.40
2023-01-28T00:22:55.092Z,5.90
2023-01-28T00:25:24.289Z,4.30
2023-01-28T00:27:53.628Z,6.70
2023-01-28T00:30:22.124Z,3.70
2023-01-28T00:32:51.322Z,6.60
2023-01-28T00:35:22.415Z,6.00
2023-01-28T00:37:51.577Z,5.10
2023-01-28T00:40:21.125Z,4.50
2023-01-28T00:42:49.995Z,5.90
2023-01-28T00:45:18.592Z,4.50
2023-01-28T00:47:48.753Z,5.30
2023-01-28T00:50:18.162Z,3.90
2023-01-28T00:52:46.517Z,18.60
2023-01-28T00:55:16.562Z,21.20
2023-01-28T00:57:45.707Z,10.20
2023-01-28T01:00:15.723Z,5.50
2023-01-28T04:02:23.770Z,4.30
2023-01-28T04:07:24.014Z,4.00
2023-01-28T04:10:21.457Z,3.40
2023-01-28T04:12:59.891Z,3.70
2023-01-28T04:15:28.787Z,4.20
2023-01-28T04:17:57.970Z,4.40
2023-01-28T04:20:32.582Z,3.90
2023-01-28T04:23:03.433Z,3.50
2023-01-28T04:25:33.272Z,3.60
2023-01-28T04:28:03.788Z,4.20
2023-01-28T04:30:33.260Z,5.00
2023-01-28T04:33:21.682Z,4.30
2023-01-28T04:36:02.398Z,3.80
2023-01-28T04:38:41.410Z,4.10
2023-01-28T04:41:25.192Z,4.10
2023-01-28T04:43:59.727Z,4.00
2023-01-28T04:46:29.080Z,3.90
2023-01-28T04:49:05.819Z,3.80
2023-01-28T04:51:54.424Z,3.60
2023-01-28T04:54:23.837Z,4.20
2023-01-28T04:56:54.095Z,3.90
2023-01-28T04:59:24.422Z,4.50
2023-01-28T05:01:55.202Z,4.50
2023-01-28T05:04:24.956Z,4.30
2023-01-28T05:06:54.690Z,4.10
2023-01-28T05:09:32.036Z,4.50
2023-01-28T05:12:01.475Z,3.40
2023-01-28T05:14:33.006Z,3.90
2023-01-28T05:17:07.393Z,3.80
2023-01-28T05:19:36.764Z,3.60
2023-01-28T05:22:09.724Z,4.30
2023-01-28T05:24:48.314Z,4.40
2023-01-28T05:27:16.988Z,4.30
2023-01-28T05:29:45.725Z,4.30
2023-01-28T05:32:14.309Z,3.80
2023-01-28T05:34:43.858Z,3.80
2023-01-28T05:37:14.468Z,4.20
2023-01-28T05:39:42.909Z,4.00
2023-01-28T05:42:12.090Z,4.40
2023-01-28T05:44:46.565Z,4.30
2023-01-28T05:47:24.959Z,4.40
2023-01-28T05:50:01.272Z,4.70
2023-01-28T05:52:41.157Z,4.70
2023-01-28T05:55:20.528Z,4.00
2023-01-28T05:57:50.389Z,4.40
2023-01-28T06:00:21.479Z,4.00
2023-01-28T06:02:52.324Z,3.70
2023-01-28T06:05:21.613Z,3.30
2023-01-28T06:07:51.817Z,3.90
2023-01-28T06:10:20.508Z,3.70
2023-01-28T06:12:49.410Z,4.60
2023-01-28T06:15:38.735Z,3.90
2023-01-28T06:18:27.571Z,4.10
2023-01-28T06:20:56.606Z,4.40
2023-01-28T06:23:24.914Z,4.30
2023-01-28T06:25:57.737Z,4.30
2023-01-28T06:28:26.644Z,3.90
2023-01-28T06:30:55.158Z,4.00
2023-01-28T06:33:24.391Z,4.80
2023-01-28T06:35:53.907Z,3.90
2023-01-28T06:38:23.555Z,4.40
2023-01-28T06:40:56.492Z,4.40
2023-01-28T06:43:28.260Z,23.50
2023-01-28T06:45:59.896Z,121.20
2023-01-28T06:48:29.252Z,22.40
2023-01-28T06:50:57.830Z,26.70
2023-01-28T06:53:26.531Z,19.20
2023-01-28T06:55:55.002Z,9.30
2023-01-28T06:58:24.167Z,4.70
2023-01-28T07:00:54.019Z,5.30
2023-01-28T07:03:23.166Z,5.50
2023-01-28T07:05:51.866Z,8.70
2023-01-28T07:08:20.890Z,8.60
2023-01-28T07:10:50.015Z,3.90
2023-01-28T07:13:19.218Z,4.80
2023-01-28T07:15:49.814Z,63.60
2023-01-28T07:18:19.373Z,27.60
2023-01-28T07:20:48.552Z,12.50
2023-01-28T07:23:17.695Z,13.40
2023-01-28T07:25:47.200Z,6.50
2023-01-28T07:28:22.020Z,14.90
2023-01-28T07:30:53.562Z,17.60
2023-01-28T07:33:23.462Z,5.10
2023-01-28T07:35:52.642Z,9.50
2023-01-28T07:38:21.584Z,5.60
2023-01-28T07:40:50.717Z,4.90
2023-01-28T07:43:19.998Z,24.00
2023-01-28T07:45:51.682Z,17.10
2023-01-28T07:48:21.020Z,5.00
2023-01-28T07:50:52.341Z,13.40
2023-01-28T07:53:22.111Z,7.40
2023-01-28T07:55:51.167Z,5.70
2023-01-28T07:58:20.214Z,5.10
2023-01-28T08:00:49.292Z,23.10
2023-01-28T08:03:18.691Z,13.70
2023-01-28T08:05:49.724Z,7.80
2023-01-28T08:08:19.572Z,5.90
2023-01-28T08:10:49.604Z,4.50
2023-01-28T08:13:19.746Z,5.10
2023-01-28T08:15:49.030Z,5.00
2023-01-28T08:18:17.898Z,4.30
2023-01-28T08:20:48.013Z,5.60
2023-01-28T08:23:21.967Z,5.50
2023-01-28T08:25:52.120Z,5.20
2023-01-28T08:28:22.316Z,5.70
2023-01-28T08:30:51.370Z,5.00
2023-01-28T08:33:20.722Z,4.70
2023-01-28T08:35:48.940Z,6.20
2023-01-28T08:38:18.043Z,5.50
2023-01-28T08:40:47.670Z,9.80
2023-01-28T08:43:16.593Z,6.30
2023-01-28T08:45:44.956Z,8.20
2023-01-28T08:48:17.875Z,8.80
2023-01-28T08:50:51.199Z,8.20
2023-01-28T08:53:21.205Z,8.80
2023-01-28T08:55:49.784Z,8.10
2023-01-28T08:58:19.408Z,6.30
2023-01-28T09:00:48.799Z,5.90
2023-01-28T09:03:18.469Z,6.10
2023-01-28T09:05:49.789Z,4.80
2023-01-28T09:08:18.674Z,5.00
2023-01-28T09:10:47.180Z,4.80
2023-01-28T09:13:16.293Z,56.90
2023-01-28T09:15:45.107Z,31.70
2023-01-28T09:18:13.660Z,26.40
2023-01-28T09:20:42.442Z,223.60
2023-01-28T09:23:12.171Z,213.70
2023-01-28T09:25:41.429Z,137.30
2023-01-28T09:28:09.892Z,79.70
2023-01-28T09:30:39.889Z,105.70
2023-01-28T09:33:08.951Z,231.90
2023-01-28T09:35:37.598Z,80.20
2023-01-28T09:38:06.776Z,35.90
2023-01-28T09:40:40.549Z,35.90
2023-01-28T09:43:19.300Z,12.50
2023-01-28T09:45:50.985Z,14.40
2023-01-28T09:48:53.918Z,161.90
2023-01-28T09:51:39.837Z,22.10
2023-01-28T09:54:36.570Z,66.00
2023-01-28T09:57:13.036Z,23.90
2023-01-28T09:59:41.759Z,11.00
2023-01-28T10:02:27.958Z,6.80
2023-01-28T10:05:15.503Z,6.70
2023-01-28T10:08:03.693Z,5.60
2023-01-28T10:10:44.934Z,5.50
2023-01-28T10:13:51.315Z,6.50
2023-01-28T10:16:29.124Z,48.30
2023-01-28T10:19:23.704Z,11.60
2023-01-28T10:22:01.105Z,5.50
2023-01-28T10:24:37.424Z,6.20
2023-01-28T10:27:20.888Z,8.60
2023-01-28T10:29:52.129Z,19.00
2023-01-28T10:32:29.492Z,8.40
2023-01-28T10:35:04.433Z,9.30
2023-01-28T10:37:37.893Z,19.90
2023-01-28T10:40:13.730Z,24.00
2023-01-28T10:42:43.133Z,17.30
2023-01-28T10:45:20.893Z,21.70
2023-01-28T10:48:14.607Z,8.30
2023-01-28T10:50:57.329Z,9.90
2023-01-28T10:53:41.032Z,7.90
2023-01-28T10:56:28.412Z,8.50
2023-01-28T10:59:05.343Z,7.90
2023-01-28T11:01:48.927Z,7.90
2023-01-28T11:04:24.644Z,7.40
2023-01-28T11:06:56.382Z,11.70
2023-01-28T11:09:29.007Z,7.50
2023-01-28T11:11:59.145Z,7.30
2023-01-28T11:14:28.620Z,6.80
2023-01-28T11:16:59.255Z,7.60
2023-01-28T11:19:39.572Z,6.40
2023-01-28T11:22:33.429Z,7.00
2023-01-28T11:25:06.859Z,6.70
2023-01-28T11:27:36.207Z,7.80
2023-01-28T11:30:05.837Z,7.60
2023-01-28T11:32:34.684Z,8.50
2023-01-28T11:35:06.360Z,8.10
2023-01-28T11:37:38.275Z,7.40
2023-01-28T11:40:23.993Z,8.90
2023-01-28T11:43:00.342Z,8.10
2023-01-28T11:45:53.129Z,7.80
2023-01-28T11:48:55.555Z,8.00
2023-01-28T11:51:44.032Z,8.60
2023-01-28T11:54:25.192Z,8.80
2023-01-28T11:57:02.727Z,8.70
2023-01-28T11:59:44.901Z,9.40
2023-01-28T12:02:49.553Z,8.80
2023-01-28T12:05:37.351Z,8.30
2023-01-28T12:08:12.488Z,10.00
2023-01-28T12:11:10.979Z,10.90
2023-01-28T12:13:58.903Z,49.60
2023-01-28T12:16:46.128Z,58.70
2023-01-28T12:19:52.664Z,208.30
2023-01-28T12:22:36.775Z,229.40
2023-01-28T12:28:21.011Z,96.10
2023-01-28T12:30:58.807Z,87.10
2023-01-28T12:33:38.139Z,114.10
2023-01-28T12:36:39.465Z,129.40
2023-01-28T12:39:27.627Z,293.70
2023-01-28T12:42:11.608Z,206.20
2023-01-28T12:45:17.071Z,90.40
2023-01-28T12:47:55.720Z,53.00
2023-01-28T12:50:41.352Z,31.40
2023-01-28T12:53:37.587Z,377.30
2023-01-28T12:56:17.436Z,451.50
2023-01-28T12:59:13.798Z,99.20
2023-01-28T13:01:52.665Z,98.40
2023-01-28T13:04:30.698Z,50.10
2023-01-28T13:07:07.051Z,23.60
2023-01-28T13:09:39.645Z,217.70
2023-01-28T13:12:13.922Z,39.80
2023-01-28T13:14:44.345Z,40.90
2023-01-28T13:17:32.462Z,91.50
2023-01-28T13:20:01.195Z,161.20
2023-01-28T13:22:36.132Z,57.20
2023-01-28T13:25:51.240Z,98.00
2023-01-28T13:28:40.002Z,95.00
2023-01-28T13:31:35.430Z,34.80
2023-01-28T13:34:05.943Z,17.80
2023-01-28T13:36:54.963Z,103.40
2023-01-28T13:39:26.766Z,17.10
2023-01-28T13:42:33.616Z,47.20
2023-01-28T13:45:23.137Z,49.70
2023-01-28T13:48:41.334Z,30.00
2023-01-28T13:51:19.089Z,11.70
2023-01-28T13:53:57.020Z,8.90
2023-01-28T13:57:00.691Z,67.90
2023-01-28T14:00:18.151Z,65.90
2023-01-28T14:03:03.003Z,20.80
2023-01-28T14:05:57.775Z,12.80
2023-01-28T14:08:51.176Z,27.80
2023-01-28T14:12:07.120Z,16.90
2023-01-28T14:15:13.877Z,10.00
2023-01-28T14:17:46.345Z,21.30
2023-01-28T14:20:33.268Z,9.30
2023-01-28T14:23:04.097Z,7.90
2023-01-28T14:25:47.575Z,8.10
2023-01-28T14:28:41.070Z,13.30
2023-01-28T14:31:17.195Z,9.70
2023-01-28T14:33:47.496Z,7.50
2023-01-28T14:36:16.449Z,8.30
2023-01-28T14:38:47.097Z,10.90
2023-01-28T14:41:33.803Z,6.80
2023-01-28T14:44:02.721Z,10.10
2023-01-28T14:46:37.567Z,47.50
2023-01-28T14:49:35.995Z,9.80
2023-01-28T14:52:17.386Z,8.10
2023-01-28T14:54:59.172Z,7.40
2023-01-28T14:57:34.556Z,7.60
2023-01-28T15:00:08.348Z,9.10
2023-01-28T15:02:45.290Z,11.60
2023-01-28T15:05:28.374Z,11.20
2023-01-28T15:07:56.832Z,14.30
2023-01-28T15:10:31.679Z,8.70
2023-01-28T15:13:09.214Z,11.10
2023-01-28T15:15:47.111Z,8.80
2023-01-28T15:18:23.733Z,18.60
2023-01-28T15:20:56.030Z,10.30
2023-01-28T15:23:43.825Z,10.50
2023-01-28T15:26:25.972Z,9.50
2023-01-28T15:28:56.665Z,26.20
2023-01-28T15:31:35.615Z,19.00
2023-01-28T15:34:11.365Z,15.80
2023-01-28T15:36:40.899Z,22.90
2023-01-28T15:39:23.917Z,17.10
2023-01-28T15:41:56.559Z,12.40
2023-01-28T15:44:39.292Z,24.50
2023-01-28T15:47:22.366Z,9.60
2023-01-28T15:49:55.111Z,8.20
2023-01-28T15:52:33.585Z,5.90
2023-01-28T15:55:03.608Z,5.90
2023-01-28T15:57:34.874Z,4.20
2023-01-28T16:00:06.073Z,17.70
2023-01-28T16:02:51.824Z,31.70
2023-01-28T16:05:42.325Z,126.60
2023-01-28T16:08:59.267Z,54.90
2023-01-28T16:11:32.998Z,104.80
2023-01-28T16:14:02.099Z,275.60
2023-01-28T16:16:32.379Z,131.70
2023-01-28T16:19:05.566Z,34.10
2023-01-28T16:21:47.744Z,111.80
2023-01-28T16:24:47.985Z,33.30
2023-01-28T16:27:25.287Z,42.20
2023-01-28T16:29:54.475Z,31.60
2023-01-28T16:32:37.653Z,19.70
2023-01-28T16:35:19.087Z,16.70
2023-01-28T16:37:49.480Z,13.90
2023-01-28T16:40:20.918Z,12.20
2023-01-28T16:42:50.169Z,15.40
2023-01-28T16:45:21.832Z,5.20
2023-01-28T16:47:54.792Z,9.20
2023-01-28T16:50:23.565Z,7.60
2023-01-28T16:52:55.120Z,4.80
2023-01-28T16:55:24.001Z,6.70
2023-01-28T16:57:56.187Z,5.50
2023-01-28T17:00:27.211Z,8.00
2023-01-28T17:02:55.565Z,5.50
2023-01-28T17:05:25.062Z,5.40
2023-01-28T17:07:56.567Z,6.30
2023-01-28T17:10:26.037Z,5.60
2023-01-28T17:12:54.946Z,6.90
2023-01-28T17:15:24.198Z,24.30
2023-01-28T17:17:54.029Z,20.60
2023-01-28T17:20:22.658Z,87.00
2023-01-28T17:22:51.268Z,67.10
2023-01-28T17:25:19.760Z,28.80
2023-01-28T17:27:50.396Z,58.50
2023-01-28T17:30:20.603Z,29.30
2023-01-28T17:32:48.688Z,19.50
2023-01-28T17:35:17.633Z,20.70
2023-01-28T17:37:46.863Z,13.60
2023-01-28T17:40:15.921Z,21.90
2023-01-28T17:42:44.349Z,19.40
2023-01-28T17:45:12.601Z,26.40
2023-01-28T17:47:41.768Z,23.70
2023-01-28T17:50:12.436Z,26.20
2023-01-28T17:52:41.367Z,27.90
2023-01-28T17:55:12.628Z,29.90
2023-01-28T17:57:44.615Z,30.20
2023-01-28T18:00:14.691Z,30.60
2023-01-28T18:02:43.877Z,25.70
2023-01-28T18:05:13.084Z,22.50
2023-01-28T18:07:44.763Z,17.40
2023-01-28T18:10:17.290Z,15.40
2023-01-28T18:12:46.723Z,19.50
2023-01-28T18:15:15.841Z,20.40
2023-01-28T18:17:45.674Z,24.90
2023-01-28T18:20:14.605Z,30.00
2023-01-28T18:22:43.991Z,36.40
2023-01-28T18:25:18.956Z,31.50
2023-01-28T18:27:48.414Z,22.00
2023-01-28T18:30:18.812Z,25.80
2023-01-28T18:32:47.625Z,30.10
2023-01-28T18:35:17.244Z,33.50
2023-01-28T18:37:46.936Z,24.30
2023-01-28T18:40:16.563Z,19.50
2023-01-28T18:42:45.857Z,21.50
2023-01-28T18:45:14.610Z,21.30
2023-01-28T18:47:43.858Z,27.30
2023-01-28T18:50:13.091Z,31.60
2023-01-28T18:52:43.019Z,38.00
2023-01-28T18:55:12.061Z,25.60
2023-01-28T18:57:40.756Z,22.30
2023-01-28T19:00:10.325Z,18.40
2023-01-28T19:02:39.205Z,17.70
2023-01-28T19:05:09.150Z,15.60
2023-01-28T19:07:37.679Z,16.70
2023-01-28T19:10:06.808Z,16.10
2023-01-28T19:12:35.840Z,16.80
2023-01-28T19:15:04.879Z,19.30
2023-01-28T19:17:35.405Z,17.10
2023-01-28T19:20:06.790Z,16.50
2023-01-28T19:22:35.256Z,17.30
2023-01-28T19:25:04.800Z,19.40
2023-01-28T19:27:33.932Z,15.20
2023-01-28T19:30:02.202Z,18.90
2023-01-28T19:32:30.569Z,20.00
2023-01-28T19:34:59.549Z,18.30
2023-01-28T19:37:29.011Z,22.20
2023-01-28T19:39:57.376Z,14.70
2023-01-28T19:42:26.124Z,17.30
2023-01-28T19:44:54.572Z,17.80
2023-01-28T19:47:23.491Z,20.40
2023-01-28T19:49:51.892Z,31.30
2023-01-28T19:52:20.317Z,21.20
2023-01-28T19:54:48.669Z,23.90
2023-01-28T19:57:17.007Z,21.30
2023-01-28T19:59:45.466Z,24.50
2023-01-28T20:02:14.242Z,70.70
2023-01-28T20:04:54.845Z,28.00
2023-01-28T20:07:29.053Z,21.50
2023-01-28T20:09:57.485Z,16.70
2023-01-28T20:12:26.256Z,19.50
2023-01-28T20:14:54.790Z,21.80
2023-01-28T20:17:23.414Z,19.00
2023-01-28T20:19:52.379Z,16.70
2023-01-28T20:22:22.276Z,14.50
2023-01-28T20:24:57.376Z,11.80
2023-01-28T20:27:26.634Z,12.40
2023-01-28T20:29:55.324Z,19.60
2023-01-28T20:32:24.075Z,16.60
2023-01-28T20:34:53.142Z,21.90
2023-01-28T20:37:21.469Z,24.90
2023-01-28T20:39:49.769Z,18.00
2023-01-28T20:42:18.310Z,16.10
2023-01-28T20:44:46.936Z,18.10
2023-01-28T20:47:16.315Z,26.20
2023-01-28T20:49:45.404Z,21.60
2023-01-28T20:52:13.954Z,27.80
2023-01-28T20:54:42.932Z,31.80
2023-01-28T20:57:11.361Z,28.70
2023-01-28T20:59:40.043Z,29.60
2023-01-28T21:02:10.661Z,29.40
2023-01-28T21:04:39.316Z,26.00
2023-01-28T21:07:09.599Z,24.20
2023-01-28T21:09:38.071Z,18.90
2023-01-28T21:12:07.462Z,17.50
2023-01-28T21:14:36.860Z,22.60
2023-01-28T21:17:05.249Z,20.80
2023-01-28T21:19:34.436Z,18.80
2023-01-28T21:22:03.154Z,20.70
2023-01-28T21:24:32.056Z,16.70
2023-01-28T21:27:01.111Z,17.70
2023-01-28T21:29:29.860Z,20.90
2023-01-28T21:31:58.484Z,15.50
2023-01-28T21:34:27.011Z,18.20
2023-01-28T21:36:55.454Z,14.40
2023-01-28T21:39:24.704Z,13.30
2023-01-28T21:41:53.205Z,14.80
2023-01-28T21:44:22.166Z,16.40
2023-01-28T21:46:50.888Z,15.20
2023-01-28T21:49:19.844Z,13.10
2023-01-28T21:51:49.147Z,11.80
2023-01-28T21:54:20.941Z,18.00
2023-01-28T21:56:51.850Z,15.70
2023-01-28T21:59:32.700Z,19.60
2023-01-28T22:02:02.834Z,14.10
2023-01-28T22:04:34.458Z,15.00
2023-01-28T22:07:06.264Z,18.20
2023-01-28T22:09:36.335Z,15.70
2023-01-28T22:12:10.511Z,17.10
2023-01-28T22:14:39.838Z,14.20
2023-01-28T22:17:12.059Z,13.10
2023-01-28T22:19:47.881Z,20.20
2023-01-28T22:22:17.420Z,24.00
2023-01-28T22:24:46.077Z,17.70
2023-01-28T22:27:16.533Z,23.20
2023-01-28T22:29:45.380Z,47.20
2023-01-28T22:32:14.806Z,42.30
2023-01-28T22:34:46.830Z,44.20
2023-01-28T22:37:16.454Z,55.20
2023-01-28T22:39:45.486Z,73.30
2023-01-28T22:42:14.638Z,139.90
2023-01-28T22:44:43.113Z,102.80
2023-01-28T22:47:12.326Z,68.80
2023-01-28T22:49:41.174Z,76.90
2023-01-28T22:52:10.155Z,79.50
2023-01-28T22:54:39.648Z,100.70
2023-01-28T22:57:08.215Z,88.00
2023-01-28T22:59:36.789Z,58.40
2023-01-28T23:02:05.638Z,62.30
2023-01-28T23:04:34.067Z,93.40
2023-01-28T23:07:02.943Z,50.80
2023-01-28T23:09:31.576Z,61.30
2023-01-28T23:12:00.707Z,48.40
2023-01-28T23:14:48.299Z,38.60
2023-01-28T23:17:36.454Z,44.90
2023-01-28T23:20:24.681Z,32.40
2023-01-28T23:23:12.079Z,37.00
2023-01-28T23:25:40.920Z,42.50
2023-01-28T23:28:10.247Z,21.60
2023-01-28T23:30:39.209Z,19.40
2023-01-28T23:33:07.995Z,18.90
2023-01-28T23:35:37.302Z,16.40
2023-01-28T23:38:05.699Z,15.50
2023-01-28T23:40:35.142Z,14.90
2023-01-28T23:43:04.877Z,14.00
2023-01-28T23:45:34.311Z,14.90
2023-01-28T23:48:07.995Z,17.00
2023-01-28T23:50:36.908Z,20.90
2023-01-28T23:53:13.435Z,19.90
2023-01-28T23:55:42.309Z,15.80
2023-01-28T23:58:11.389Z,16.30
